sensor_id;sensor_type;location;lat;lon;timestamp;P1;durP1;ratioP1;P2;durP2;ratioP2
22064;SDS011;11197;53.110;8.468;2023-09-19T00:02:16;8.00;;;2.47;;
22064;SDS011;11197;53.110;8.468;2023-09-19T00:04:45;6.25;;;2.63;;
22064;SDS011;11197;53.110;8.468;2023-09-19T00:07:10;7.45;;;2.30;;
22064;SDS011;11197;53.110;8.468;2023-09-19T00:09:36;10.43;;;2.58;;
22064;SDS011;11197;53.110;8.468;2023-09-19T00:12:03;7.43;;;2.42;;
22064;SDS011;11197;53.110;8.468;2023-09-19T00:14:30;7.43;;;2.25;;
22064;SDS011;11197;53.110;8.468;2023-09-19T00:16:59;5.05;;;2.40;;
22064;SDS011;11197;53.110;8.468;2023-09-19T00:19:25;4.00;;;1.90;;
22064;SDS011;11197;53.110;8.468;2023-09-19T00:21:51;7.53;;;2.40;;
22064;SDS011;11197;53.110;8.468;2023-09-19T00:24:18;5.18;;;2.00;;
22064;SDS011;11197;53.110;8.468;2023-09-19T00:26:44;5.70;;;1.85;;
22064;SDS011;11197;53.110;8.468;2023-09-19T00:29:12;6.82;;;2.20;;
22064;SDS011;11197;53.110;8.468;2023-09-19T00:31:44;4.72;;;1.85;;
22064;SDS011;11197;53.110;8.468;2023-09-19T00:34:09;5.55;;;1.90;;
22064;SDS011;11197;53.110;8.468;2023-09-19T00:36:39;5.35;;;1.90;;
22064;SDS011;11197;53.110;8.468;2023-09-19T00:39:05;6.40;;;2.10;;
22064;SDS011;11197;53.110;8.468;2023-09-19T00:41:34;6.63;;;1.73;;
22064;SDS011;11197;53.110;8.468;2023-09-19T00:44:03;5.30;;;1.60;;
22064;SDS011;11197;53.110;8.468;2023-09-19T00:46:39;7.68;;;1.88;;
22064;SDS011;11197;53.110;8.468;2023-09-19T00:49:05;6.18;;;2.03;;
22064;SDS011;11197;53.110;8.468;2023-09-19T00:51:34;6.68;;;1.80;;
22064;SDS011;11197;53.110;8.468;2023-09-19T00:54:02;7.15;;;1.88;;
22064;SDS011;11197;53.110;8.468;2023-09-19T00:56:29;8.98;;;1.80;;
22064;SDS011;11197;53.110;8.468;2023-09-19T00:58:54;6.22;;;1.73;;
22064;SDS011;11197;53.110;8.468;2023-09-19T01:01:20;8.10;;;1.85;;
22064;SDS011;11197;53.110;8.468;2023-09-19T01:03:46;6.50;;;2.05;;
22064;SDS011;11197;53.110;8.468;2023-09-19T01:06:12;5.90;;;1.95;;
22064;SDS011;11197;53.110;8.468;2023-09-19T01:08:38;6.95;;;1.88;;
22064;SDS011;11197;53.110;8.468;2023-09-19T01:14:03;7.00;;;2.15;;
22064;SDS011;11197;53.110;8.468;2023-09-19T01:16:57;6.03;;;1.90;;
22064;SDS011;11197;53.110;8.468;2023-09-19T01:22:21;5.70;;;2.00;;
22064;SDS011;11197;53.110;8.468;2023-09-19T01:30:24;8.32;;;2.45;;
22064;SDS011;11197;53.110;8.468;2023-09-19T01:32:57;5.38;;;1.70;;
22064;SDS011;11197;53.110;8.468;2023-09-19T01:35:24;4.53;;;1.70;;
22064;SDS011;11197;53.110;8.468;2023-09-19T01:37:51;6.47;;;1.70;;
22064;SDS011;11197;53.110;8.468;2023-09-19T01:40:19;5.15;;;1.67;;
22064;SDS011;11197;53.110;8.468;2023-09-19T01:51:11;4.28;;;1.42;;
22064;SDS011;11197;53.110;8.468;2023-09-19T01:56:36;3.80;;;1.30;;
22064;SDS011;11197;53.110;8.468;2023-09-19T01:59:10;3.97;;;1.27;;
22064;SDS011;11197;53.110;8.468;2023-09-19T02:01:49;4.70;;;1.35;;
22064;SDS011;11197;53.110;8.468;2023-09-19T02:04:18;5.15;;;1.42;;
22064;SDS011;11197;53.110;8.468;2023-09-19T02:06:43;4.13;;;1.42;;
22064;SDS011;11197;53.110;8.468;2023-09-19T02:09:13;4.72;;;1.63;;
22064;SDS011;11197;53.110;8.468;2023-09-19T02:11:40;5.32;;;1.38;;
22064;SDS011;11197;53.110;8.468;2023-09-19T02:14:07;6.03;;;1.17;;
22064;SDS011;11197;53.110;8.468;2023-09-19T02:16:34;6.20;;;1.25;;
22064;SDS011;11197;53.110;8.468;2023-09-19T02:19:00;5.05;;;1.17;;
22064;SDS011;11197;53.110;8.468;2023-09-19T02:21:30;4.35;;;1.15;;
22064;SDS011;11197;53.110;8.468;2023-09-19T02:23:57;4.57;;;1.10;;
22064;SDS011;11197;53.110;8.468;2023-09-19T02:26:24;3.90;;;1.05;;
22064;SDS011;11197;53.110;8.468;2023-09-19T02:28:49;4.63;;;1.35;;
22064;SDS011;11197;53.110;8.468;2023-09-19T02:31:15;5.65;;;1.30;;
22064;SDS011;11197;53.110;8.468;2023-09-19T02:33:41;5.47;;;1.40;;
22064;SDS011;11197;53.110;8.468;2023-09-19T02:36:08;7.55;;;1.48;;
22064;SDS011;11197;53.110;8.468;2023-09-19T02:38:35;8.57;;;1.50;;
22064;SDS011;11197;53.110;8.468;2023-09-19T02:41:02;8.75;;;1.45;;
22064;SDS011;11197;53.110;8.468;2023-09-19T02:43:28;7.57;;;1.50;;
22064;SDS011;11197;53.110;8.468;2023-09-19T02:45:54;5.53;;;1.40;;
22064;SDS011;11197;53.110;8.468;2023-09-19T02:48:20;6.40;;;1.55;;
22064;SDS011;11197;53.110;8.468;2023-09-19T02:50:46;6.10;;;1.33;;
22064;SDS011;11197;53.110;8.468;2023-09-19T02:53:14;6.45;;;1.50;;
22064;SDS011;11197;53.110;8.468;2023-09-19T02:55:40;4.60;;;1.13;;
22064;SDS011;11197;53.110;8.468;2023-09-19T02:58:06;5.65;;;1.52;;
22064;SDS011;11197;53.110;8.468;2023-09-19T03:00:40;8.40;;;1.75;;
22064;SDS011;11197;53.110;8.468;2023-09-19T03:03:08;8.32;;;1.60;;
22064;SDS011;11197;53.110;8.468;2023-09-19T03:05:34;10.30;;;1.88;;
22064;SDS011;11197;53.110;8.468;2023-09-19T03:08:00;9.88;;;1.88;;
22064;SDS011;11197;53.110;8.468;2023-09-19T03:10:26;8.88;;;1.85;;
22064;SDS011;11197;53.110;8.468;2023-09-19T03:12:54;7.75;;;1.60;;
22064;SDS011;11197;53.110;8.468;2023-09-19T03:15:20;7.22;;;1.75;;
22064;SDS011;11197;53.110;8.468;2023-09-19T03:17:48;9.70;;;1.70;;
22064;SDS011;11197;53.110;8.468;2023-09-19T03:20:19;6.65;;;1.80;;
22064;SDS011;11197;53.110;8.468;2023-09-19T03:22:46;4.70;;;1.25;;
22064;SDS011;11197;53.110;8.468;2023-09-19T03:30:23;9.25;;;1.80;;
22064;SDS011;11197;53.110;8.468;2023-09-19T03:32:49;9.15;;;2.10;;
22064;SDS011;11197;53.110;8.468;2023-09-19T03:35:16;6.40;;;1.70;;
22064;SDS011;11197;53.110;8.468;2023-09-19T03:37:44;6.70;;;1.83;;
22064;SDS011;11197;53.110;8.468;2023-09-19T03:42:39;6.45;;;1.65;;
22064;SDS011;11197;53.110;8.468;2023-09-19T03:45:07;7.53;;;1.40;;
22064;SDS011;11197;53.110;8.468;2023-09-19T03:47:40;10.15;;;1.80;;
22064;SDS011;11197;53.110;8.468;2023-09-19T03:52:36;7.43;;;1.85;;
22064;SDS011;11197;53.110;8.468;2023-09-19T03:55:02;7.88;;;1.77;;
22064;SDS011;11197;53.110;8.468;2023-09-19T03:57:29;9.10;;;1.95;;
22064;SDS011;11197;53.110;8.468;2023-09-19T03:59:55;7.20;;;1.67;;
22064;SDS011;11197;53.110;8.468;2023-09-19T04:07:37;7.45;;;1.85;;
22064;SDS011;11197;53.110;8.468;2023-09-19T04:10:02;6.68;;;1.67;;
22064;SDS011;11197;53.110;8.468;2023-09-19T04:12:28;8.48;;;1.70;;
22064;SDS011;11197;53.110;8.468;2023-09-19T04:14:54;11.18;;;2.00;;
22064;SDS011;11197;53.110;8.468;2023-09-19T04:17:20;9.48;;;1.75;;
22064;SDS011;11197;53.110;8.468;2023-09-19T04:19:46;10.38;;;1.88;;
22064;SDS011;11197;53.110;8.468;2023-09-19T04:22:11;7.10;;;1.63;;
22064;SDS011;11197;53.110;8.468;2023-09-19T04:24:38;6.88;;;1.83;;
22064;SDS011;11197;53.110;8.468;2023-09-19T04:27:04;11.20;;;2.10;;
22064;SDS011;11197;53.110;8.468;2023-09-19T04:29:30;5.57;;;1.70;;
22064;SDS011;11197;53.110;8.468;2023-09-19T04:34:33;7.53;;;1.80;;
22064;SDS011;11197;53.110;8.468;2023-09-19T04:36:59;9.95;;;1.90;;
22064;SDS011;11197;53.110;8.468;2023-09-19T04:39:26;8.75;;;1.90;;
22064;SDS011;11197;53.110;8.468;2023-09-19T04:41:52;6.75;;;1.63;;
22064;SDS011;11197;53.110;8.468;2023-09-19T04:44:18;6.28;;;1.60;;
22064;SDS011;11197;53.110;8.468;2023-09-19T04:46:44;11.18;;;2.03;;
22064;SDS011;11197;53.110;8.468;2023-09-19T04:49:12;12.93;;;2.10;;
22064;SDS011;11197;53.110;8.468;2023-09-19T04:51:38;8.63;;;2.15;;
22064;SDS011;11197;53.110;8.468;2023-09-19T04:54:04;8.13;;;2.00;;
22064;SDS011;11197;53.110;8.468;2023-09-19T04:56:30;9.13;;;2.00;;
22064;SDS011;11197;53.110;8.468;2023-09-19T04:58:57;11.35;;;2.10;;
22064;SDS011;11197;53.110;8.468;2023-09-19T05:01:24;9.38;;;2.00;;
22064;SDS011;11197;53.110;8.468;2023-09-19T05:03:50;8.90;;;1.92;;
22064;SDS011;11197;53.110;8.468;2023-09-19T05:06:20;10.07;;;1.95;;
22064;SDS011;11197;53.110;8.468;2023-09-19T05:08:47;10.75;;;2.17;;
22064;SDS011;11197;53.110;8.468;2023-09-19T05:11:17;11.02;;;2.05;;
22064;SDS011;11197;53.110;8.468;2023-09-19T05:13:44;8.50;;;2.10;;
22064;SDS011;11197;53.110;8.468;2023-09-19T05:16:10;10.35;;;2.30;;
22064;SDS011;11197;53.110;8.468;2023-09-19T05:18:36;10.85;;;2.13;;
22064;SDS011;11197;53.110;8.468;2023-09-19T05:21:02;13.85;;;2.33;;
22064;SDS011;11197;53.110;8.468;2023-09-19T05:23:28;9.38;;;2.10;;
22064;SDS011;11197;53.110;8.468;2023-09-19T05:25:54;11.38;;;2.13;;
22064;SDS011;11197;53.110;8.468;2023-09-19T05:28:22;10.85;;;2.20;;
22064;SDS011;11197;53.110;8.468;2023-09-19T05:30:48;9.73;;;2.28;;
22064;SDS011;11197;53.110;8.468;2023-09-19T05:33:15;7.82;;;1.88;;
22064;SDS011;11197;53.110;8.468;2023-09-19T05:35:40;14.63;;;2.60;;
22064;SDS011;11197;53.110;8.468;2023-09-19T05:38:07;11.27;;;2.10;;
22064;SDS011;11197;53.110;8.468;2023-09-19T05:40:38;9.38;;;2.20;;
22064;SDS011;11197;53.110;8.468;2023-09-19T05:43:08;9.40;;;2.40;;
22064;SDS011;11197;53.110;8.468;2023-09-19T05:45:34;11.18;;;2.30;;
22064;SDS011;11197;53.110;8.468;2023-09-19T05:48:11;11.93;;;2.45;;
22064;SDS011;11197;53.110;8.468;2023-09-19T05:50:41;10.85;;;2.30;;
22064;SDS011;11197;53.110;8.468;2023-09-19T05:53:07;11.30;;;2.13;;
22064;SDS011;11197;53.110;8.468;2023-09-19T05:55:37;8.88;;;2.30;;
22064;SDS011;11197;53.110;8.468;2023-09-19T05:58:03;11.60;;;2.40;;
22064;SDS011;11197;53.110;8.468;2023-09-19T06:00:28;11.25;;;2.53;;
22064;SDS011;11197;53.110;8.468;2023-09-19T06:02:57;12.07;;;2.47;;
22064;SDS011;11197;53.110;8.468;2023-09-19T06:05:24;9.48;;;2.33;;
22064;SDS011;11197;53.110;8.468;2023-09-19T06:07:55;11.70;;;2.58;;
22064;SDS011;11197;53.110;8.468;2023-09-19T06:10:23;9.77;;;2.35;;
22064;SDS011;11197;53.110;8.468;2023-09-19T06:12:50;11.10;;;2.28;;
22064;SDS011;11197;53.110;8.468;2023-09-19T06:15:16;8.65;;;2.50;;
22064;SDS011;11197;53.110;8.468;2023-09-19T06:17:48;10.77;;;2.17;;
22064;SDS011;11197;53.110;8.468;2023-09-19T06:20:15;11.25;;;2.58;;
22064;SDS011;11197;53.110;8.468;2023-09-19T06:22:42;10.30;;;2.38;;
22064;SDS011;11197;53.110;8.468;2023-09-19T06:25:10;12.57;;;2.70;;
22064;SDS011;11197;53.110;8.468;2023-09-19T06:27:40;12.93;;;2.35;;
22064;SDS011;11197;53.110;8.468;2023-09-19T06:30:09;11.25;;;2.20;;
22064;SDS011;11197;53.110;8.468;2023-09-19T06:32:39;14.17;;;2.77;;
22064;SDS011;11197;53.110;8.468;2023-09-19T06:35:09;10.45;;;2.25;;
22064;SDS011;11197;53.110;8.468;2023-09-19T06:37:39;18.45;;;2.85;;
22064;SDS011;11197;53.110;8.468;2023-09-19T06:40:09;13.30;;;2.45;;
22064;SDS011;11197;53.110;8.468;2023-09-19T06:42:46;8.73;;;2.30;;
22064;SDS011;11197;53.110;8.468;2023-09-19T06:45:14;11.05;;;2.28;;
22064;SDS011;11197;53.110;8.468;2023-09-19T06:47:44;12.45;;;2.53;;
22064;SDS011;11197;53.110;8.468;2023-09-19T06:50:17;12.50;;;2.58;;
22064;SDS011;11197;53.110;8.468;2023-09-19T06:52:45;10.40;;;2.63;;
22064;SDS011;11197;53.110;8.468;2023-09-19T06:55:13;11.90;;;2.50;;
22064;SDS011;11197;53.110;8.468;2023-09-19T06:57:41;12.68;;;2.40;;
22064;SDS011;11197;53.110;8.468;2023-09-19T07:00:09;12.18;;;2.40;;
22064;SDS011;11197;53.110;8.468;2023-09-19T07:05:32;8.50;;;1.85;;
22064;SDS011;11197;53.110;8.468;2023-09-19T07:08:01;10.48;;;2.25;;
22064;SDS011;11197;53.110;8.468;2023-09-19T07:10:27;9.07;;;1.98;;
22064;SDS011;11197;53.110;8.468;2023-09-19T07:15:22;11.48;;;2.45;;
22064;SDS011;11197;53.110;8.468;2023-09-19T07:17:50;13.57;;;2.80;;
22064;SDS011;11197;53.110;8.468;2023-09-19T07:20:17;10.65;;;2.40;;
22064;SDS011;11197;53.110;8.468;2023-09-19T07:22:44;12.20;;;2.15;;
22064;SDS011;11197;53.110;8.468;2023-09-19T07:25:09;10.75;;;2.40;;
22064;SDS011;11197;53.110;8.468;2023-09-19T07:27:35;11.80;;;2.40;;
22064;SDS011;11197;53.110;8.468;2023-09-19T07:30:01;13.20;;;2.28;;
22064;SDS011;11197;53.110;8.468;2023-09-19T07:32:27;13.57;;;2.20;;
22064;SDS011;11197;53.110;8.468;2023-09-19T07:34:52;9.20;;;2.17;;
22064;SDS011;11197;53.110;8.468;2023-09-19T07:37:20;15.10;;;2.60;;
22064;SDS011;11197;53.110;8.468;2023-09-19T07:39:46;12.98;;;2.42;;
22064;SDS011;11197;53.110;8.468;2023-09-19T07:42:12;13.02;;;2.50;;
22064;SDS011;11197;53.110;8.468;2023-09-19T07:47:11;11.70;;;2.20;;
22064;SDS011;11197;53.110;8.468;2023-09-19T07:49:38;11.85;;;2.15;;
22064;SDS011;11197;53.110;8.468;2023-09-19T07:52:04;12.07;;;2.22;;
22064;SDS011;11197;53.110;8.468;2023-09-19T07:54:30;12.65;;;2.25;;
22064;SDS011;11197;53.110;8.468;2023-09-19T07:57:01;11.07;;;2.13;;
22064;SDS011;11197;53.110;8.468;2023-09-19T07:59:27;11.45;;;2.38;;
22064;SDS011;11197;53.110;8.468;2023-09-19T08:01:53;12.18;;;2.13;;
22064;SDS011;11197;53.110;8.468;2023-09-19T08:04:19;11.18;;;2.25;;
22064;SDS011;11197;53.110;8.468;2023-09-19T08:06:45;11.73;;;2.15;;
22064;SDS011;11197;53.110;8.468;2023-09-19T08:09:11;15.23;;;2.72;;
22064;SDS011;11197;53.110;8.468;2023-09-19T08:11:41;14.05;;;2.30;;
22064;SDS011;11197;53.110;8.468;2023-09-19T08:14:07;10.15;;;2.20;;
22064;SDS011;11197;53.110;8.468;2023-09-19T08:16:33;10.25;;;2.03;;
22064;SDS011;11197;53.110;8.468;2023-09-19T08:18:59;10.90;;;1.90;;
22064;SDS011;11197;53.110;8.468;2023-09-19T08:21:25;9.55;;;2.13;;
22064;SDS011;11197;53.110;8.468;2023-09-19T08:23:54;9.68;;;2.50;;
22064;SDS011;11197;53.110;8.468;2023-09-19T08:26:19;11.35;;;2.58;;
22064;SDS011;11197;53.110;8.468;2023-09-19T08:28:46;10.98;;;2.30;;
22064;SDS011;11197;53.110;8.468;2023-09-19T08:31:13;13.05;;;2.15;;
22064;SDS011;11197;53.110;8.468;2023-09-19T08:33:39;10.45;;;2.22;;
22064;SDS011;11197;53.110;8.468;2023-09-19T08:36:06;9.13;;;2.13;;
22064;SDS011;11197;53.110;8.468;2023-09-19T08:38:33;9.57;;;2.05;;
22064;SDS011;11197;53.110;8.468;2023-09-19T08:41:00;9.13;;;1.85;;
22064;SDS011;11197;53.110;8.468;2023-09-19T08:43:34;10.13;;;2.13;;
22064;SDS011;11197;53.110;8.468;2023-09-19T08:46:10;7.82;;;2.00;;
22064;SDS011;11197;53.110;8.468;2023-09-19T08:48:39;11.38;;;2.08;;
22064;SDS011;11197;53.110;8.468;2023-09-19T08:54:22;9.80;;;1.90;;
22064;SDS011;11197;53.110;8.468;2023-09-19T08:56:54;10.07;;;2.13;;
22064;SDS011;11197;53.110;8.468;2023-09-19T08:59:23;9.27;;;2.40;;
22064;SDS011;11197;53.110;8.468;2023-09-19T09:04:20;9.05;;;2.00;;
22064;SDS011;11197;53.110;8.468;2023-09-19T09:06:48;10.10;;;2.10;;
22064;SDS011;11197;53.110;8.468;2023-09-19T09:11:45;10.75;;;2.22;;
22064;SDS011;11197;53.110;8.468;2023-09-19T09:14:12;9.88;;;2.10;;
22064;SDS011;11197;53.110;8.468;2023-09-19T09:16:39;8.75;;;1.95;;
22064;SDS011;11197;53.110;8.468;2023-09-19T09:19:05;8.70;;;2.20;;
22064;SDS011;11197;53.110;8.468;2023-09-19T09:21:31;14.23;;;2.13;;
22064;SDS011;11197;53.110;8.468;2023-09-19T09:26:56;6.30;;;1.65;;
22064;SDS011;11197;53.110;8.468;2023-09-19T09:29:39;10.98;;;2.35;;
22064;SDS011;11197;53.110;8.468;2023-09-19T09:32:19;8.70;;;1.80;;
22064;SDS011;11197;53.110;8.468;2023-09-19T09:34:52;12.00;;;2.03;;
22064;SDS011;11197;53.110;8.468;2023-09-19T09:37:20;8.18;;;1.60;;
22064;SDS011;11197;53.110;8.468;2023-09-19T09:39:50;9.05;;;2.22;;
22064;SDS011;11197;53.110;8.468;2023-09-19T09:42:32;9.80;;;1.70;;
22064;SDS011;11197;53.110;8.468;2023-09-19T09:45:13;11.02;;;2.08;;
22064;SDS011;11197;53.110;8.468;2023-09-19T09:47:47;8.88;;;1.83;;
22064;SDS011;11197;53.110;8.468;2023-09-19T09:53:02;9.43;;;2.00;;
22064;SDS011;11197;53.110;8.468;2023-09-19T09:58:27;9.43;;;1.80;;
22064;SDS011;11197;53.110;8.468;2023-09-19T10:01:00;9.25;;;2.15;;
22064;SDS011;11197;53.110;8.468;2023-09-19T10:03:40;11.30;;;1.88;;
22064;SDS011;11197;53.110;8.468;2023-09-19T10:06:12;8.60;;;2.08;;
22064;SDS011;11197;53.110;8.468;2023-09-19T10:11:40;9.20;;;1.88;;
22064;SDS011;11197;53.110;8.468;2023-09-19T10:14:08;10.52;;;2.20;;
22064;SDS011;11197;53.110;8.468;2023-09-19T10:16:40;11.07;;;2.08;;
22064;SDS011;11197;53.110;8.468;2023-09-19T10:19:15;10.07;;;2.15;;
22064;SDS011;11197;53.110;8.468;2023-09-19T10:21:55;8.98;;;2.13;;
22064;SDS011;11197;53.110;8.468;2023-09-19T10:24:22;15.05;;;2.60;;
22064;SDS011;11197;53.110;8.468;2023-09-19T10:26:51;8.52;;;2.03;;
22064;SDS011;11197;53.110;8.468;2023-09-19T10:29:19;14.73;;;2.60;;
22064;SDS011;11197;53.110;8.468;2023-09-19T10:31:47;8.80;;;2.50;;
22064;SDS011;11197;53.110;8.468;2023-09-19T10:34:17;9.32;;;2.40;;
22064;SDS011;11197;53.110;8.468;2023-09-19T10:36:45;9.65;;;2.35;;
22064;SDS011;11197;53.110;8.468;2023-09-19T10:39:15;14.45;;;2.83;;
22064;SDS011;11197;53.110;8.468;2023-09-19T10:41:51;13.98;;;2.30;;
22064;SDS011;11197;53.110;8.468;2023-09-19T10:44:24;8.90;;;2.38;;
22064;SDS011;11197;53.110;8.468;2023-09-19T10:46:51;12.95;;;2.47;;
22064;SDS011;11197;53.110;8.468;2023-09-19T10:49:19;10.38;;;2.33;;
22064;SDS011;11197;53.110;8.468;2023-09-19T10:51:46;10.75;;;2.47;;
22064;SDS011;11197;53.110;8.468;2023-09-19T10:54:18;8.70;;;2.33;;
22064;SDS011;11197;53.110;8.468;2023-09-19T10:56:47;8.27;;;2.22;;
22064;SDS011;11197;53.110;8.468;2023-09-19T10:59:19;12.00;;;2.03;;
22064;SDS011;11197;53.110;8.468;2023-09-19T11:09:43;11.20;;;2.20;;
22064;SDS011;11197;53.110;8.468;2023-09-19T11:12:11;12.50;;;2.35;;
22064;SDS011;11197;53.110;8.468;2023-09-19T11:14:39;9.70;;;2.17;;
22064;SDS011;11197;53.110;8.468;2023-09-19T11:33:15;9.23;;;2.38;;
22064;SDS011;11197;53.110;8.468;2023-09-19T11:36:10;9.93;;;2.20;;
22064;SDS011;11197;53.110;8.468;2023-09-19T11:39:00;8.55;;;1.85;;
22064;SDS011;11197;53.110;8.468;2023-09-19T11:41:37;9.65;;;2.10;;
22064;SDS011;11197;53.110;8.468;2023-09-19T11:46:51;9.27;;;2.28;;
22064;SDS011;11197;53.110;8.468;2023-09-19T11:49:18;10.25;;;2.10;;
22064;SDS011;11197;53.110;8.468;2023-09-19T11:51:51;10.05;;;2.22;;
22064;SDS011;11197;53.110;8.468;2023-09-19T11:54:17;8.23;;;1.98;;
22064;SDS011;11197;53.110;8.468;2023-09-19T11:56:50;12.10;;;2.83;;
22064;SDS011;11197;53.110;8.468;2023-09-19T11:59:28;10.07;;;2.20;;
22064;SDS011;11197;53.110;8.468;2023-09-19T12:01:56;7.93;;;2.42;;
22064;SDS011;11197;53.110;8.468;2023-09-19T12:04:36;9.52;;;2.42;;
22064;SDS011;11197;53.110;8.468;2023-09-19T12:07:14;9.98;;;2.40;;
22064;SDS011;11197;53.110;8.468;2023-09-19T12:12:25;9.98;;;2.20;;
22064;SDS011;11197;53.110;8.468;2023-09-19T12:14:52;7.03;;;1.80;;
22064;SDS011;11197;53.110;8.468;2023-09-19T12:17:20;8.20;;;2.20;;
22064;SDS011;11197;53.110;8.468;2023-09-19T12:19:53;9.23;;;2.00;;
22064;SDS011;11197;53.110;8.468;2023-09-19T12:22:20;10.20;;;2.20;;
22064;SDS011;11197;53.110;8.468;2023-09-19T12:24:46;7.63;;;2.00;;
22064;SDS011;11197;53.110;8.468;2023-09-19T12:27:13;9.02;;;2.25;;
22064;SDS011;11197;53.110;8.468;2023-09-19T12:29:48;12.73;;;2.33;;
22064;SDS011;11197;53.110;8.468;2023-09-19T12:32:33;13.48;;;2.63;;
22064;SDS011;11197;53.110;8.468;2023-09-19T12:35:00;12.52;;;2.42;;
22064;SDS011;11197;53.110;8.468;2023-09-19T12:37:32;9.10;;;2.17;;
22064;SDS011;11197;53.110;8.468;2023-09-19T12:40:04;9.30;;;1.98;;
22064;SDS011;11197;53.110;8.468;2023-09-19T12:42:50;10.38;;;2.00;;
22064;SDS011;11197;53.110;8.468;2023-09-19T12:45:20;7.78;;;2.20;;
22064;SDS011;11197;53.110;8.468;2023-09-19T12:51:06;10.48;;;2.00;;
22064;SDS011;11197;53.110;8.468;2023-09-19T12:53:43;6.85;;;1.80;;
22064;SDS011;11197;53.110;8.468;2023-09-19T12:56:12;8.95;;;2.10;;
22064;SDS011;11197;53.110;8.468;2023-09-19T12:58:53;9.45;;;2.15;;
22064;SDS011;11197;53.110;8.468;2023-09-19T13:01:27;12.18;;;2.38;;
22064;SDS011;11197;53.110;8.468;2023-09-19T13:04:28;8.18;;;1.90;;
22064;SDS011;11197;53.110;8.468;2023-09-19T13:06:55;12.73;;;2.30;;
22064;SDS011;11197;53.110;8.468;2023-09-19T13:09:26;7.90;;;2.08;;
22064;SDS011;11197;53.110;8.468;2023-09-19T13:12:04;12.32;;;2.50;;
22064;SDS011;11197;53.110;8.468;2023-09-19T13:15:07;10.32;;;1.95;;
22064;SDS011;11197;53.110;8.468;2023-09-19T13:17:44;8.10;;;1.88;;
22064;SDS011;11197;53.110;8.468;2023-09-19T13:20:24;9.27;;;2.00;;
22064;SDS011;11197;53.110;8.468;2023-09-19T13:22:57;7.90;;;1.92;;
22064;SDS011;11197;53.110;8.468;2023-09-19T13:25:33;8.48;;;1.75;;
22064;SDS011;11197;53.110;8.468;2023-09-19T13:28:00;10.68;;;1.98;;
22064;SDS011;11197;53.110;8.468;2023-09-19T13:30:30;11.43;;;2.33;;
22064;SDS011;11197;53.110;8.468;2023-09-19T13:33:09;9.88;;;1.80;;
22064;SDS011;11197;53.110;8.468;2023-09-19T13:35:36;8.73;;;1.73;;
22064;SDS011;11197;53.110;8.468;2023-09-19T13:38:05;11.32;;;1.92;;
22064;SDS011;11197;53.110;8.468;2023-09-19T13:40:34;9.93;;;2.05;;
22064;SDS011;11197;53.110;8.468;2023-09-19T13:43:00;8.77;;;2.00;;
22064;SDS011;11197;53.110;8.468;2023-09-19T13:45:26;9.63;;;2.05;;
22064;SDS011;11197;53.110;8.468;2023-09-19T13:47:55;8.20;;;1.83;;
22064;SDS011;11197;53.110;8.468;2023-09-19T13:50:21;9.02;;;2.40;;
22064;SDS011;11197;53.110;8.468;2023-09-19T13:52:54;8.50;;;2.10;;
22064;SDS011;11197;53.110;8.468;2023-09-19T13:55:20;8.98;;;2.10;;
22064;SDS011;11197;53.110;8.468;2023-09-19T13:57:49;7.93;;;1.83;;
22064;SDS011;11197;53.110;8.468;2023-09-19T14:00:24;9.32;;;1.80;;
22064;SDS011;11197;53.110;8.468;2023-09-19T14:02:50;10.60;;;1.80;;
22064;SDS011;11197;53.110;8.468;2023-09-19T14:05:16;10.07;;;1.92;;
22064;SDS011;11197;53.110;8.468;2023-09-19T14:07:42;11.02;;;1.88;;
22064;SDS011;11197;53.110;8.468;2023-09-19T14:10:09;7.28;;;1.70;;
22064;SDS011;11197;53.110;8.468;2023-09-19T14:12:36;6.75;;;1.40;;
22064;SDS011;11197;53.110;8.468;2023-09-19T14:15:03;6.45;;;1.63;;
22064;SDS011;11197;53.110;8.468;2023-09-19T14:17:29;16.50;;;2.33;;
22064;SDS011;11197;53.110;8.468;2023-09-19T14:19:55;10.82;;;2.20;;
22064;SDS011;11197;53.110;8.468;2023-09-19T14:22:21;10.30;;;1.90;;
22064;SDS011;11197;53.110;8.468;2023-09-19T14:27:28;10.20;;;1.88;;
22064;SDS011;11197;53.110;8.468;2023-09-19T14:29:54;9.43;;;1.98;;
22064;SDS011;11197;53.110;8.468;2023-09-19T14:32:20;7.75;;;1.85;;
22064;SDS011;11197;53.110;8.468;2023-09-19T14:34:46;7.68;;;1.90;;
22064;SDS011;11197;53.110;8.468;2023-09-19T14:37:12;7.55;;;1.90;;
22064;SDS011;11197;53.110;8.468;2023-09-19T14:39:38;7.22;;;1.60;;
22064;SDS011;11197;53.110;8.468;2023-09-19T14:42:04;8.02;;;1.83;;
22064;SDS011;11197;53.110;8.468;2023-09-19T14:44:30;7.82;;;1.70;;
22064;SDS011;11197;53.110;8.468;2023-09-19T14:46:56;10.38;;;2.13;;
22064;SDS011;11197;53.110;8.468;2023-09-19T14:49:21;8.90;;;2.00;;
22064;SDS011;11197;53.110;8.468;2023-09-19T14:51:47;9.93;;;1.67;;
22064;SDS011;11197;53.110;8.468;2023-09-19T14:54:13;9.13;;;1.77;;
22064;SDS011;11197;53.110;8.468;2023-09-19T14:56:41;8.82;;;1.67;;
22064;SDS011;11197;53.110;8.468;2023-09-19T14:59:07;9.75;;;1.85;;
22064;SDS011;11197;53.110;8.468;2023-09-19T15:01:35;9.35;;;1.67;;
22064;SDS011;11197;53.110;8.468;2023-09-19T15:04:01;7.32;;;1.60;;
22064;SDS011;11197;53.110;8.468;2023-09-19T15:06:27;6.97;;;1.50;;
22064;SDS011;11197;53.110;8.468;2023-09-19T15:08:53;14.63;;;1.98;;
22064;SDS011;11197;53.110;8.468;2023-09-19T15:11:19;8.48;;;1.50;;
22064;SDS011;11197;53.110;8.468;2023-09-19T15:13:46;10.10;;;1.75;;
22064;SDS011;11197;53.110;8.468;2023-09-19T15:16:12;8.02;;;1.30;;
22064;SDS011;11197;53.110;8.468;2023-09-19T15:18:42;8.73;;;1.58;;
22064;SDS011;11197;53.110;8.468;2023-09-19T15:21:10;9.32;;;1.65;;
22064;SDS011;11197;53.110;8.468;2023-09-19T15:23:37;8.27;;;1.60;;
22064;SDS011;11197;53.110;8.468;2023-09-19T15:26:04;7.28;;;1.48;;
22064;SDS011;11197;53.110;8.468;2023-09-19T15:28:30;7.57;;;1.52;;
22064;SDS011;11197;53.110;8.468;2023-09-19T15:31:01;6.05;;;1.52;;
22064;SDS011;11197;53.110;8.468;2023-09-19T15:33:27;7.43;;;1.92;;
22064;SDS011;11197;53.110;8.468;2023-09-19T15:38:31;7.18;;;1.58;;
22064;SDS011;11197;53.110;8.468;2023-09-19T15:40:57;7.78;;;1.58;;
22064;SDS011;11197;53.110;8.468;2023-09-19T15:43:24;9.23;;;1.88;;
22064;SDS011;11197;53.110;8.468;2023-09-19T15:45:49;7.13;;;1.70;;
22064;SDS011;11197;53.110;8.468;2023-09-19T15:48:15;8.25;;;1.67;;
22064;SDS011;11197;53.110;8.468;2023-09-19T15:50:42;7.05;;;1.60;;
22064;SDS011;11197;53.110;8.468;2023-09-19T15:53:09;9.77;;;1.60;;
22064;SDS011;11197;53.110;8.468;2023-09-19T15:55:38;6.50;;;1.50;;
22064;SDS011;11197;53.110;8.468;2023-09-19T15:58:08;7.50;;;1.70;;
22064;SDS011;11197;53.110;8.468;2023-09-19T16:00:34;7.22;;;1.48;;
22064;SDS011;11197;53.110;8.468;2023-09-19T16:03:04;12.30;;;2.00;;
22064;SDS011;11197;53.110;8.468;2023-09-19T16:05:36;5.88;;;1.60;;
22064;SDS011;11197;53.110;8.468;2023-09-19T16:08:03;7.45;;;1.73;;
22064;SDS011;11197;53.110;8.468;2023-09-19T16:10:30;7.75;;;1.35;;
22064;SDS011;11197;53.110;8.468;2023-09-19T16:12:59;9.98;;;1.80;;
22064;SDS011;11197;53.110;8.468;2023-09-19T16:15:25;8.52;;;1.40;;
22064;SDS011;11197;53.110;8.468;2023-09-19T16:17:51;6.35;;;1.70;;
22064;SDS011;11197;53.110;8.468;2023-09-19T16:20:16;7.85;;;1.65;;
22064;SDS011;11197;53.110;8.468;2023-09-19T16:22:45;5.93;;;1.67;;
22064;SDS011;11197;53.110;8.468;2023-09-19T16:25:11;7.38;;;1.30;;
22064;SDS011;11197;53.110;8.468;2023-09-19T16:27:37;6.78;;;1.55;;
22064;SDS011;11197;53.110;8.468;2023-09-19T16:30:02;9.13;;;1.73;;
22064;SDS011;11197;53.110;8.468;2023-09-19T16:32:29;8.57;;;1.55;;
22064;SDS011;11197;53.110;8.468;2023-09-19T16:34:55;7.32;;;1.50;;
22064;SDS011;11197;53.110;8.468;2023-09-19T16:37:21;7.95;;;1.42;;
22064;SDS011;11197;53.110;8.468;2023-09-19T16:39:48;6.88;;;1.67;;